Time;durP1;ratioP1;P1;durP2;ratioP2;P2;SDS_P1;SDS_P2;PMS_P1;PMS_P2;Temp;Humidity;BMP_temperature;BMP_pressure;BME280_temperature;BME280_humidity;BME280_pressure;Samples;Min_cycle;Max_cycle;Signal;HPM_P1;HPM_P2
2023/01/08 00:31:53;;;;;;;37.53;12.18;;;;;;;-10.75;52.08;101064.97;5108618;24;20056;-76
2023/01/08 00:34:19;;;;;;;68.00;15.68;;;;;;;-10.83;52.35;101038.34;4750774;30;20059;-76
2023/01/08 00:36:45;;;;;;;57.05;17.08;;;;;;;-11.07;53.16;101059.78;4750816;30;20146;-76
2023/01/08 00:39:11;;;;;;;24.88;7.90;;;;;;;-10.86;53.02;101073.78;4750806;30;20048;-76
2023/01/08 00:41:37;;;;;;;21.42;6.90;;;;;;;-10.82;53.09;101069.13;4750311;30;20048;-76
2023/01/08 00:44:03;;;;;;;14.20;5.60;;;;;;;-10.63;53.04;101050.69;4750714;30;20105;-77
2023/01/08 00:46:28;;;;;;;19.77;7.50;;;;;;;-10.26;52.24;101066.81;4735224;30;20044;-75
2023/01/08 00:48:54;;;;;;;12.80;4.68;;;;;;;-10.27;52.26;101067.78;4750408;30;20052;-76
2023/01/08 00:51:20;;;;;;;9.65;3.85;;;;;;;-10.03;52.20;101074.47;4750392;30;20050;-75
2023/01/08 00:53:46;;;;;;;12.98;4.30;;;;;;;-10.17;52.22;101073.91;4750157;30;20048;-76
2023/01/08 00:56:12;;;;;;;9.93;3.75;;;;;;;-10.28;52.35;101060.81;4750838;30;20056;-77
2023/01/08 00:58:38;;;;;;;12.55;4.75;;;;;;;-10.39;52.81;101060.94;4750886;30;20538;-76
2023/01/08 01:01:12;;;;;;;11.70;3.97;;;;;;;-10.44;53.44;101068.44;4750882;30;20044;-76
2023/01/08 01:03:38;;;;;;;15.75;4.40;;;;;;;-10.39;53.19;101066.22;4751936;30;20048;-77
2023/01/08 01:06:05;;;;;;;11.43;4.03;;;;;;;-10.45;53.37;101066.75;4754213;30;20052;-78
2023/01/08 01:08:32;;;;;;;16.77;3.97;;;;;;;-10.32;53.57;101071.81;4753913;30;20135;-77
2023/01/08 01:10:58;;;;;;;12.50;4.03;;;;;;;-10.54;53.80;101072.84;4754144;30;20131;-77
2023/01/08 01:13:24;;;;;;;17.58;5.45;;;;;;;-10.56;53.86;101056.28;4753606;30;20131;-78
2023/01/08 01:16:01;;;;;;;11.18;4.22;;;;;;;-10.55;54.09;101060.59;4753234;30;20098;-76
2023/01/08 01:18:27;;;;;;;11.45;4.07;;;;;;;-10.52;54.43;101071.75;4753320;30;20086;-76
2023/01/08 01:20:53;;;;;;;10.63;4.33;;;;;;;-10.61;54.45;101067.25;4753694;30;20526;-76
2023/01/08 01:23:19;;;;;;;9.63;3.03;;;;;;;-10.64;54.68;101070.16;4752825;30;20437;-75
2023/01/08 01:25:45;;;;;;;8.02;2.97;;;;;;;-10.88;55.16;101067.81;4753033;30;20040;-75
2023/01/08 01:28:11;;;;;;;6.35;3.20;;;;;;;-10.93;55.70;101064.72;4753611;30;20080;-76
2023/01/08 01:30:37;;;;;;;11.85;4.07;;;;;;;-10.99;56.04;101075.81;4752913;30;20041;-76
2023/01/08 01:33:03;;;;;;;7.60;3.40;;;;;;;-10.78;55.55;101074.00;4753792;30;20094;-75
2023/01/08 01:35:29;;;;;;;6.75;1.75;;;;;;;-10.95;55.58;101069.31;4752955;30;20143;-76
2023/01/08 01:37:55;;;;;;;5.28;2.63;;;;;;;-11.21;55.73;101075.00;4753645;30;20130;-77
2023/01/08 01:40:20;;;;;;;17.70;4.43;;;;;;;-11.15;56.13;101073.66;4753273;30;20052;-77
2023/01/08 01:42:46;;;;;;;9.18;3.33;;;;;;;-11.16;55.92;101075.44;4753169;30;20048;-77
2023/01/08 01:45:21;;;;;;;9.85;2.97;;;;;;;-11.27;55.91;101080.78;4736438;30;20052;-77
2023/01/08 01:47:58;;;;;;;8.73;3.63;;;;;;;-11.20;55.59;101071.38;4753342;30;20048;-77
2023/01/08 01:50:31;;;;;;;9.48;3.45;;;;;;;-11.20;55.75;101073.19;4735551;30;20500;-77
2023/01/08 01:53:05;;;;;;;9.45;3.25;;;;;;;-11.27;55.58;101074.66;4746957;30;20404;-77
2023/01/08 01:55:32;;;;;;;10.85;3.85;;;;;;;-11.27;55.67;101080.78;4753043;30;20499;-77
2023/01/08 01:58:14;;;;;;;9.48;3.65;;;;;;;-11.16;55.40;101088.66;4753067;30;20052;-77
2023/01/08 02:00:41;;;;;;;7.70;3.90;;;;;;;-11.14;55.28;101077.94;4752413;30;20040;-75
2023/01/08 02:03:08;;;;;;;;;;;;;;;-11.09;55.11;101088.09;4753649;30;20101;-75
2023/01/08 02:06:13;;;;;;;7.47;3.88;;;;;;;-10.89;54.82;101082.00;4736952;30;19926;-79
2023/01/08 02:08:55;;;;;;;7.82;3.10;;;;;;;-10.90;54.93;101081.16;4748884;30;20083;-78
2023/01/08 02:11:37;;;;;;;6.80;4.00;;;;;;;-11.04;55.01;101078.84;4752666;30;20044;-78
2023/01/08 02:14:26;;;;;;;12.20;3.78;;;;;;;-10.78;54.63;101068.72;4752550;30;20143;-76
2023/01/08 02:17:01;;;;;;;9.50;4.05;;;;;;;-10.82;54.60;101069.94;4742246;30;20044;-78
2023/01/08 02:19:48;;;;;;;8.15;3.38;;;;;;;-10.81;54.73;101068.97;4739081;30;20047;-76
2023/01/08 02:22:59;;;;;;;5.97;3.08;;;;;;;-10.72;55.27;101057.63;4738787;30;20044;-75
2023/01/08 02:25:52;;;;;;;7.35;2.65;;;;;;;-10.74;55.04;101064.81;4748824;30;20437;-75
2023/01/08 02:28:20;;;;;;;9.25;3.53;;;;;;;-10.43;54.74;101070.09;4747097;30;20135;-76
2023/01/08 02:30:47;;;;;;;8.52;3.40;;;;;;;-10.29;54.03;101064.44;4751782;30;20060;-76
2023/01/08 02:33:13;;;;;;;9.65;3.40;;;;;;;-10.21;54.48;101063.72;4752480;30;20044;-75
2023/01/08 02:35:50;;;;;;;12.80;3.35;;;;;;;-10.03;54.27;101061.25;4751852;30;20052;-78
2023/01/08 02:38:17;;;;;;;8.55;3.92;;;;;;;-10.00;53.53;101051.28;4730255;30;20068;-77
2023/01/08 02:41:03;;;;;;;7.88;3.08;;;;;;;-10.05;53.70;101063.22;4751288;30;20572;-76
2023/01/08 02:43:50;;;;;;;7.30;3.30;;;;;;;-10.12;53.71;101060.28;4747312;30;20155;-77
2023/01/08 02:46:22;;;;;;;6.47;2.45;;;;;;;-10.25;54.22;101063.16;4751519;30;20507;-77
2023/01/08 02:48:53;;;;;;;14.07;3.13;;;;;;;-10.52;54.63;101070.91;4751441;30;20052;-77
2023/01/08 02:51:50;;;;;;;8.30;3.20;;;;;;;-10.56;55.11;101080.06;4751538;30;20040;-78
2023/01/08 02:54:23;;;;;;;10.80;3.55;;;;;;;-10.53;55.25;101075.34;4679384;30;20053;-77
2023/01/08 02:56:56;;;;;;;9.32;3.67;;;;;;;-10.32;54.54;101077.09;4679843;30;20050;-76
2023/01/08 02:59:23;;;;;;;12.70;3.60;;;;;;;-10.06;53.99;101070.31;4679645;30;20080;-77
2023/01/08 03:01:49;;;;;;;10.82;3.15;;;;;;;-10.10;53.94;101060.13;4679388;30;20053;-76
2023/01/08 03:04:20;;;;;;;7.47;2.60;;;;;;;-10.13;53.37;101057.75;4679408;30;20601;-77
2023/01/08 03:06:47;;;;;;;6.82;3.20;;;;;;;-10.23;53.76;101058.59;4679594;30;20058;-76
2023/01/08 03:09:14;;;;;;;11.05;2.95;;;;;;;-10.40;53.96;101064.53;4679498;30;20057;-77
2023/01/08 03:11:53;;;;;;;10.23;3.45;;;;;;;-10.25;53.73;101047.31;4678934;30;20120;-76
2023/01/08 03:14:26;;;;;;;10.48;3.00;;;;;;;-10.24;54.09;101054.25;4679288;30;20046;-76
2023/01/08 03:17:11;;;;;;;9.70;3.10;;;;;;;-10.18;53.95;101056.38;4679341;30;20119;-76
2023/01/08 03:19:48;;;;;;;6.18;2.85;;;;;;;-10.11;53.70;101055.81;4679257;30;20073;-76
2023/01/08 03:22:16;;;;;;;10.73;3.60;;;;;;;-10.43;54.04;101080.66;4679012;30;20050;-76
2023/01/08 03:24:47;;;;;;;18.48;4.38;;;;;;;-10.18;53.88;101059.00;4679162;30;20054;-76
2023/01/08 03:27:17;;;;;;;11.20;3.05;;;;;;;-9.85;52.63;101070.22;4678197;30;20058;-75
2023/01/08 03:29:47;;;;;;;8.05;3.80;;;;;;;-9.95;52.44;101064.06;4688416;30;20046;-75
2023/01/08 03:32:16;;;;;;;8.60;3.85;;;;;;;-10.18;52.89;101072.22;4750855;30;20562;-76
2023/01/08 03:34:45;;;;;;;20.17;6.00;;;;;;;-10.21;52.86;101082.25;4751206;30;20398;-76
2023/01/08 03:37:13;;;;;;;16.77;4.97;;;;;;;-10.33;53.09;101080.69;4737181;30;20055;-76
2023/01/08 03:39:57;;;;;;;20.48;5.30;;;;;;;-10.41;53.12;101084.84;4751228;30;20036;-75
2023/01/08 03:42:24;;;;;;;21.23;6.95;;;;;;;-10.38;53.71;101086.41;4750901;30;20442;-76
2023/01/08 03:44:51;;;;;;;;;;;;;;;-10.56;53.77;101085.34;4751566;30;20050;-76
2023/01/08 03:47:20;;;;;;;12.85;5.10;;;;;;;-10.43;53.96;101081.53;4749278;30;19976;-75
2023/01/08 03:49:48;;;;;;;15.75;5.38;;;;;;;-10.55;53.73;101077.28;4750875;30;20051;-75
2023/01/08 03:52:27;;;;;;;9.88;4.53;;;;;;;-10.70;54.40;101095.28;4750891;30;20095;-75
2023/01/08 03:54:53;;;;;;;8.73;3.42;;;;;;;-10.44;53.93;101095.69;4750401;30;20681;-76
2023/01/08 03:57:19;;;;;;;10.43;3.05;;;;;;;-10.33;53.61;101088.63;4750681;30;20101;-76
2023/01/08 03:59:46;;;;;;;10.43;3.08;;;;;;;-10.56;53.76;101086.19;4749982;30;20043;-76
2023/01/08 04:02:12;;;;;;;8.32;3.20;;;;;;;-10.33;54.01;101086.84;4751008;30;20060;-75
2023/01/08 04:04:38;;;;;;;15.23;3.35;;;;;;;-10.41;53.69;101105.16;4750497;30;20531;-75
2023/01/08 04:07:04;;;;;;;7.65;3.22;;;;;;;-10.37;53.57;101097.81;4750368;30;20063;-75
2023/01/08 04:09:30;;;;;;;6.97;2.70;;;;;;;-10.28;53.88;101097.00;4749914;30;20526;-75
2023/01/08 04:11:56;;;;;;;6.57;2.88;;;;;;;-10.41;53.74;101099.88;4750521;30;20044;-75
2023/01/08 04:14:22;;;;;;;7.60;3.15;;;;;;;-10.52;54.17;101086.78;4750472;30;20072;-75
2023/01/08 04:16:48;;;;;;;6.70;2.80;;;;;;;-10.39;53.78;101086.56;4750098;30;21791;-75
2023/01/08 04:19:14;;;;;;;9.48;3.67;;;;;;;-10.06;53.18;101077.44;4750731;30;20131;-77
2023/01/08 04:21:40;;;;;;;5.65;2.67;;;;;;;-9.90;52.86;101087.47;4755268;30;20043;-78
2023/01/08 04:24:06;;;;;;;7.05;3.20;;;;;;;-10.14;53.04;101080.72;4750468;30;20126;-77
2023/01/08 04:26:33;;;;;;;8.43;3.15;;;;;;;-10.35;53.42;101083.50;4749674;30;20044;-75
2023/01/08 04:29:02;;;;;;;6.85;3.30;;;;;;;-10.27;53.79;101083.66;4750241;30;20091;-76
2023/01/08 04:31:29;;;;;;;6.47;2.90;;;;;;;-10.19;53.82;101086.44;4749941;30;20147;-77
2023/01/08 04:33:55;;;;;;;8.18;2.80;;;;;;;-10.28;54.14;101081.97;4750239;30;20904;-74
2023/01/08 04:36:21;;;;;;;8.52;2.95;;;;;;;-10.30;54.68;101075.97;4750607;30;20044;-77
2023/01/08 04:38:47;;;;;;;10.68;3.83;;;;;;;-10.33;54.74;101072.75;4752191;30;20044;-77
2023/01/08 04:41:13;;;;;;;8.25;3.10;;;;;;;-10.25;54.81;101067.63;4752809;30;20047;-77
2023/01/08 04:43:39;;;;;;;2.17;0.95;;;;;;;-10.45;54.39;101077.34;4753993;30;20123;-74
2023/01/08 04:46:08;;;;;;;5.85;2.35;;;;;;;-10.55;55.36;101065.88;4737532;30;20095;-75
2023/01/08 04:48:34;;;;;;;4.93;2.28;;;;;;;-10.84;56.23;101085.06;4753599;30;20499;-77
2023/01/08 04:51:02;;;;;;;5.80;2.60;;;;;;;-10.77;56.38;101082.75;4753027;30;20111;-78
2023/01/08 04:53:29;;;;;;;7.85;3.03;;;;;;;-10.68;55.97;101063.47;4737718;30;20570;-77
2023/01/08 04:55:55;;;;;;;;;;;;;;;-10.28;55.83;101078.50;4753744;30;20052;-75
2023/01/08 04:58:21;;;;;;;22.70;3.37;;;;;;;-10.16;55.28;101069.47;4747489;30;19926;-78
2023/01/08 05:00:48;;;;;;;8.88;3.58;;;;;;;-10.04;54.41;101072.81;4749693;30;20411;-77
2023/01/08 05:03:14;;;;;;;7.67;2.90;;;;;;;-9.90;54.31;101067.13;4731134;30;20036;-78
2023/01/08 05:05:40;;;;;;;7.47;2.63;;;;;;;-9.70;53.44;101052.09;4752247;30;20321;-78
2023/01/08 05:08:05;;;;;;;8.43;3.95;;;;;;;-9.53;53.02;101069.13;4734398;30;20087;-77
2023/01/08 05:10:32;;;;;;;7.80;3.35;;;;;;;-9.58;53.12;101079.28;4748120;30;20468;-78
2023/01/08 05:13:01;;;;;;;8.05;3.20;;;;;;;-9.68;53.09;101071.34;4748978;30;20051;-77
2023/01/08 05:15:27;;;;;;;12.00;3.33;;;;;;;-9.70;53.12;101084.72;4749146;30;20131;-77
2023/01/08 05:17:58;;;;;;;5.88;3.28;;;;;;;-9.35;52.83;101079.84;4747002;30;20048;-77
2023/01/08 05:20:24;;;;;;;10.10;3.33;;;;;;;-9.10;52.26;101076.63;4748650;30;20130;-76
2023/01/08 05:22:50;;;;;;;9.77;3.42;;;;;;;-9.52;52.38;101086.69;4748943;30;20480;-77
2023/01/08 05:25:16;;;;;;;12.15;3.95;;;;;;;-9.51;53.38;101089.16;4747503;30;20056;-76
2023/01/08 05:27:41;;;;;;;9.18;3.70;;;;;;;-9.74;53.71;101087.75;4749774;30;20039;-78
2023/01/08 05:30:08;;;;;;;11.00;3.60;;;;;;;-9.81;53.36;101065.47;4750191;30;20423;-76
2023/01/08 05:32:34;;;;;;;6.40;2.80;;;;;;;-9.72;53.50;101080.53;4746657;30;20151;-75
2023/01/08 05:35:00;;;;;;;10.02;3.42;;;;;;;-9.48;53.42;101083.59;4749504;30;20138;-76
2023/01/08 05:37:26;;;;;;;9.52;3.70;;;;;;;-9.19;52.68;101087.22;4745856;30;20047;-76
2023/01/08 05:39:51;;;;;;;14.10;4.78;;;;;;;-9.08;52.31;101087.06;4735304;30;20048;-76
2023/01/08 05:42:17;;;;;;;9.13;3.95;;;;;;;-9.00;51.80;101093.34;4748708;30;20538;-76
2023/01/08 05:44:43;;;;;;;12.18;4.15;;;;;;;-9.18;52.53;101088.88;4751182;30;20110;-76
2023/01/08 05:47:09;;;;;;;10.70;4.57;;;;;;;-9.10;52.79;101096.97;4749704;30;20096;-75
2023/01/08 05:49:35;;;;;;;19.60;5.70;;;;;;;-9.23;52.45;101103.41;4731480;30;20135;-75
2023/01/08 05:52:01;;;;;;;17.80;5.63;;;;;;;-9.23;52.65;101102.56;4747944;30;20163;-75
2023/01/08 05:54:27;;;;;;;14.82;5.82;;;;;;;-9.14;52.15;101085.81;4732692;30;20097;-75
2023/01/08 05:56:53;;;;;;;16.58;6.10;;;;;;;-9.34;52.58;101090.28;4748096;30;20059;-75
2023/01/08 05:59:18;;;;;;;32.13;10.13;;;;;;;-9.23;52.26;101082.22;4746504;30;20048;-76
2023/01/08 06:01:44;;;;;;;20.67;8.25;;;;;;;-9.16;51.99;101065.75;4747343;30;20044;-76
2023/01/08 06:04:10;;;;;;;17.80;5.20;;;;;;;-8.76;51.41;101084.91;4749131;30;20041;-75
2023/01/08 06:06:36;;;;;;;14.65;6.45;;;;;;;-8.84;50.99;101076.00;4749997;30;20044;-77
2023/01/08 06:09:02;;;;;;;19.35;9.70;;;;;;;-9.00;51.39;101079.25;4747255;30;20040;-78
2023/01/08 06:11:28;;;;;;;31.20;12.63;;;;;;;-9.35;52.02;101077.19;4749098;30;20422;-76
2023/01/08 06:13:54;;;;;;;64.05;20.38;;;;;;;-9.35;51.98;101078.03;4745520;30;20084;-77
2023/01/08 06:16:20;;;;;;;39.40;14.32;;;;;;;-9.30;52.19;101082.91;4749192;30;20139;-77
2023/01/08 06:18:46;;;;;;;26.00;9.02;;;;;;;-9.24;52.01;101083.19;4747010;30;20438;-77
2023/01/08 06:21:12;;;;;;;19.88;6.55;;;;;;;-9.37;52.21;101079.13;4744010;30;20052;-77
2023/01/08 06:23:39;;;;;;;16.45;5.22;;;;;;;-9.56;52.55;101064.94;4748129;30;20049;-77
2023/01/08 06:26:05;;;;;;;6.85;3.45;;;;;;;-9.55;52.87;101084.31;4748144;30;20725;-75
2023/01/08 06:28:31;;;;;;;12.55;4.93;;;;;;;-9.59;52.93;101086.41;4745926;30;20049;-76
2023/01/08 06:30:59;;;;;;;7.22;3.67;;;;;;;-9.82;53.32;101077.88;4750601;30;20048;-75
2023/01/08 06:33:25;;;;;;;12.02;5.63;;;;;;;-9.95;53.80;101059.63;4746000;30;20053;-75
2023/01/08 06:35:50;;;;;;;13.30;5.43;;;;;;;-9.88;53.84;101081.06;4749854;30;20475;-75
2023/01/08 06:38:20;;;;;;;14.85;6.15;;;;;;;-10.01;53.98;101083.13;4748766;30;20094;-75
2023/01/08 06:40:46;;;;;;;14.35;6.20;;;;;;;-10.07;54.02;101063.34;4749261;30;20059;-75
2023/01/08 06:43:13;;;;;;;15.77;6.80;;;;;;;-10.00;53.96;101090.09;4747058;30;20044;-76
2023/01/08 06:45:39;;;;;;;13.77;6.03;;;;;;;-10.02;53.55;101081.47;4746338;30;20047;-76
2023/01/08 06:48:06;;;;;;;17.15;6.97;;;;;;;-10.24;53.77;101099.22;4749180;30;20298;-76
2023/01/08 06:50:33;;;;;;;17.85;6.95;;;;;;;-10.38;54.16;101096.97;4747523;30;20599;-77
2023/01/08 06:52:59;;;;;;;16.85;7.40;;;;;;;-10.58;54.65;101076.72;4746969;30;20048;-76
2023/01/08 06:55:26;;;;;;;18.80;6.80;;;;;;;-10.53;54.65;101098.28;4733541;30;20048;-76
2023/01/08 06:57:56;;;;;;;14.43;5.03;;;;;;;-10.36;54.71;101087.13;4750743;30;20044;-79
2023/01/08 07:00:24;;;;;;;9.82;3.78;;;;;;;-10.29;54.59;101075.03;4753490;30;20040;-78
2023/01/08 07:02:53;;;;;;;15.82;6.18;;;;;;;-10.20;54.15;101084.78;4754337;30;20075;-74
2023/01/08 07:05:19;;;;;;;18.17;7.30;;;;;;;-10.00;53.52;101082.16;4749028;30;20050;-73
2023/01/08 07:07:49;;;;;;;20.52;6.70;;;;;;;-10.19;52.96;101064.44;4749894;30;20044;-77
2023/01/08 07:10:15;;;;;;;22.08;6.95;;;;;;;-10.18;53.14;101084.63;4749193;30;20495;-78
2023/01/08 07:12:41;;;;;;;19.10;7.95;;;;;;;-10.21;52.70;101096.28;4747079;30;20052;-75
2023/01/08 07:15:07;;;;;;;15.32;7.07;;;;;;;-10.55;52.91;101097.59;4748148;30;20090;-75
2023/01/08 07:17:34;;;;;;;14.25;6.35;;;;;;;-10.80;53.04;101110.25;4746307;30;20051;-76
2023/01/08 07:20:00;;;;;;;25.92;9.65;;;;;;;-10.97;53.59;101118.78;4745663;30;20044;-68
2023/01/08 07:22:28;;;;;;;40.65;12.88;;;;;;;-10.87;53.75;101114.38;4747285;30;20079;-67
2023/01/08 07:24:54;;;;;;;28.70;12.05;;;;;;;-10.71;53.37;101116.56;4747813;30;20072;-66
2023/01/08 07:27:20;;;;;;;22.00;10.15;;;;;;;-10.72;52.65;101123.66;4748968;30;20067;-68
2023/01/08 07:29:47;;;;;;;20.40;8.75;;;;;;;-11.00;52.54;101127.78;4746674;30;20076;-67
2023/01/08 07:32:13;;;;;;;21.35;8.15;;;;;;;-10.98;52.67;101131.16;4743230;30;20060;-67
2023/01/08 07:34:40;;;;;;;22.02;8.45;;;;;;;-10.95;52.69;101132.69;4741182;30;20040;-60
2023/01/08 07:37:06;;;;;;;;;;;;;;;-10.83;52.67;101136.09;4742198;30;20123;-60
2023/01/08 07:39:32;;;;;;;23.47;8.67;;;;;;;-10.79;52.78;101138.38;4747286;30;20393;-68
2023/01/08 07:41:58;;;;;;;31.55;10.68;;;;;;;-10.48;52.51;101138.41;4744429;30;20044;-66
2023/01/08 07:44:24;;;;;;;29.60;11.30;;;;;;;-10.52;51.76;101135.19;4743309;30;20048;-63
2023/01/08 07:46:50;;;;;;;30.50;10.68;;;;;;;-10.47;52.20;101140.06;4742869;30;20051;-66
2023/01/08 07:49:16;;;;;;;26.73;11.93;;;;;;;-10.59;52.41;101146.38;4729273;30;20037;-67
2023/01/08 07:51:42;;;;;;;23.00;8.30;;;;;;;-10.65;52.36;101140.66;4743305;30;20128;-64
2023/01/08 07:54:11;;;;;;;23.00;8.68;;;;;;;-10.70;53.12;101150.78;4742721;30;20044;-65
2023/01/08 07:56:37;;;;;;;15.48;6.35;;;;;;;-10.66;53.31;101154.84;4744223;30;20478;-68
2023/01/08 07:59:03;;;;;;;17.60;7.88;;;;;;;-10.50;53.41;101156.19;4740627;30;20056;-67
2023/01/08 08:01:29;;;;;;;24.40;9.80;;;;;;;-10.48;53.59;101143.69;4743246;30;20052;-60
2023/01/08 08:03:55;;;;;;;21.95;7.25;;;;;;;-10.44;53.73;101150.38;4734430;30;20135;-62
2023/01/08 08:06:21;;;;;;;16.40;6.05;;;;;;;-10.31;53.75;101152.78;4751049;30;20131;-65
2023/01/08 08:08:47;;;;;;;14.63;5.70;;;;;;;-10.14;54.07;101148.66;4749770;30;20074;-65
2023/01/08 08:11:13;;;;;;;20.95;6.95;;;;;;;-9.76;53.13;101140.84;4750264;30;20051;-67
2023/01/08 08:13:43;;;;;;;26.23;7.22;;;;;;;-9.73;53.11;101137.94;4749590;30;20052;-68
2023/01/08 08:16:12;;;;;;;17.17;6.80;;;;;;;-9.78;53.21;101136.66;4749976;30;20094;-59
2023/01/08 08:18:38;;;;;;;16.88;6.50;;;;;;;-9.68;52.97;101134.84;4749992;30;20084;-68
2023/01/08 08:21:05;;;;;;;10.00;5.05;;;;;;;-9.70;52.58;101142.09;4748239;30;20132;-61
2023/01/08 08:23:32;;;;;;;16.67;6.05;;;;;;;-9.45;52.69;101135.44;4741678;30;20130;-66
2023/01/08 08:26:00;;;;;;;;;;;;;;;-9.39;52.36;101131.41;4738422;30;20048;-60
2023/01/08 08:28:26;;;;;;;19.25;5.18;;;;;;;-9.51;52.65;101125.41;4742722;30;20416;-60
2023/01/08 08:30:54;;;;;;;9.82;4.40;;;;;;;-9.47;52.54;101132.09;4741740;30;20070;-61
2023/01/08 08:33:20;;;;;;;16.05;6.43;;;;;;;-9.36;52.97;101129.31;4738006;30;20131;-68
2023/01/08 08:35:52;;;;;;;14.65;5.88;;;;;;;-9.18;52.59;101131.28;4736263;30;20088;-68
2023/01/08 08:38:18;;;;;;;9.90;4.47;;;;;;;-9.12;52.63;101133.38;4739786;30;20048;-64
2023/01/08 08:40:44;;;;;;;7.60;3.00;;;;;;;-9.25;52.18;101123.88;4740493;30;20095;-69
2023/01/08 08:43:10;;;;;;;11.65;5.10;;;;;;;-9.19;52.69;101126.97;4741368;30;20129;-67
2023/01/08 08:45:37;;;;;;;11.20;5.15;;;;;;;-9.00;52.62;101132.25;4740285;30;20053;-66
2023/01/08 08:48:07;;;;;;;15.83;5.53;;;;;;;-8.86;52.04;101125.66;4735873;30;20056;-65
2023/01/08 08:50:34;;;;;;;12.38;5.53;;;;;;;-8.79;52.39;101122.28;4743380;30;20301;-66
2023/01/08 08:53:02;;;;;;;16.45;6.07;;;;;;;-8.84;52.22;101121.91;4740412;30;20044;-61
2023/01/08 08:55:28;;;;;;;29.65;9.65;;;;;;;-8.92;52.34;101113.81;4728582;30;20049;-67
2023/01/08 08:58:09;;;;;;;35.13;10.73;;;;;;;-9.01;52.42;101112.84;4734449;30;21057;-67
2023/01/08 09:00:39;;;;;;;46.30;12.77;;;;;;;-9.05;52.88;101118.56;4737879;30;20447;-65
2023/01/08 09:03:06;;;;;;;39.67;11.10;;;;;;;-8.99;52.84;101113.53;4734427;30;20048;-60
2023/01/08 09:05:35;;;;;;;17.83;8.07;;;;;;;-8.86;52.68;101110.59;4739937;30;20098;-61
2023/01/08 09:08:02;;;;;;;16.15;6.72;;;;;;;-8.67;52.55;101112.38;4738095;30;20045;-67
2023/01/08 09:10:31;;;;;;;;;;;;;;;-8.44;52.34;101099.59;4729080;30;20048;-60
2023/01/08 09:12:57;;;;;;;13.80;6.18;;;;;;;-8.45;52.25;101095.25;4738203;30;19934;-60
2023/01/08 09:15:24;;;;;;;17.83;7.40;;;;;;;-8.24;51.86;101099.47;4744299;30;20055;-66
2023/01/08 09:17:55;;;;;;;11.95;5.18;;;;;;;-7.94;51.18;101099.19;4743339;30;20076;-60
2023/01/08 09:20:24;;;;;;;14.73;5.05;;;;;;;-8.00;50.73;101099.78;4736092;30;20570;-64
2023/01/08 09:22:50;;;;;;;12.45;5.47;;;;;;;-8.20;51.18;101095.56;4732484;30;20044;-61
2023/01/08 09:25:16;;;;;;;19.50;4.95;;;;;;;-8.07;51.59;101099.53;4735767;30;20055;-62
2023/01/08 09:27:43;;;;;;;18.10;4.55;;;;;;;-7.92;51.17;101094.53;4741346;30;20396;-60
2023/01/08 09:30:11;;;;;;;17.65;5.05;;;;;;;-7.94;52.09;101107.16;4746317;30;20047;-60
2023/01/08 09:32:37;;;;;;;16.65;5.32;;;;;;;-7.68;51.05;101111.72;4744009;30;20067;-59
2023/01/08 09:35:04;;;;;;;11.20;4.32;;;;;;;-7.87;51.06;101110.03;4746623;30;20118;-64
2023/01/08 09:37:30;;;;;;;15.60;4.20;;;;;;;-7.88;51.43;101101.25;4746635;30;20120;-61
2023/01/08 09:39:56;;;;;;;12.82;4.03;;;;;;;-8.08;51.58;101110.28;4746302;30;20120;-64
2023/01/08 09:42:26;;;;;;;14.75;4.25;;;;;;;-8.00;52.41;101104.25;4749321;30;20044;-63
2023/01/08 09:44:55;;;;;;;12.50;4.82;;;;;;;-7.87;51.18;101113.53;4753034;30;20074;-60
2023/01/08 09:47:42;;;;;;;13.38;5.00;;;;;;;-7.94;52.20;101108.97;4753106;30;20528;-67
2023/01/08 09:50:14;;;;;;;;;;;;;;;-7.64;51.20;101107.81;4753511;30;20056;-62
2023/01/08 09:52:41;;;;;;;16.02;4.43;;;;;;;-7.37;50.71;101109.56;4753171;30;19930;-66
2023/01/08 09:55:16;;;;;;;15.75;5.07;;;;;;;-7.69;50.98;101107.41;4752968;30;20067;-68
2023/01/08 09:57:43;;;;;;;18.88;5.00;;;;;;;-7.73;51.71;101111.34;4728672;30;21115;-61
2023/01/08 10:00:32;;;;;;;8.82;4.38;;;;;;;-7.89;51.95;101102.22;4752766;30;20052;-60
2023/01/08 10:02:59;;;;;;;13.15;4.70;;;;;;;-7.78;51.97;101089.72;4744775;30;20045;-60
2023/01/08 10:05:27;;;;;;;7.13;3.05;;;;;;;-7.76;51.67;101101.03;4752000;30;20146;-60
2023/01/08 10:07:53;;;;;;;11.43;4.65;;;;;;;-7.75;51.71;101095.56;4744144;30;20583;-64
2023/01/08 10:10:29;;;;;;;15.15;4.57;;;;;;;-7.69;51.47;101094.13;4752042;30;20052;-62
2023/01/08 10:12:56;;;;;;;14.68;4.75;;;;;;;-7.54;51.21;101095.28;4744514;30;20052;-64
2023/01/08 10:15:22;;;;;;;16.83;5.50;;;;;;;-7.52;51.15;101093.28;4751627;30;20055;-62
2023/01/08 10:17:57;;;;;;;9.77;4.93;;;;;;;-7.36;50.70;101097.94;4743105;30;20956;-63
2023/01/08 10:20:27;;;;;;;10.90;5.13;;;;;;;-7.21;50.17;101092.94;4751035;30;20049;-63
2023/01/08 10:22:55;;;;;;;24.92;5.50;;;;;;;-7.42;50.62;101110.00;4743308;30;20064;-68
2023/01/08 10:25:27;;;;;;;13.35;5.57;;;;;;;-7.19;50.76;101110.38;4750377;30;20143;-61
2023/01/08 10:27:58;;;;;;;14.48;5.70;;;;;;;-7.21;50.69;101108.88;4742535;30;20478;-62
2023/01/08 10:30:30;;;;;;;11.88;5.03;;;;;;;-7.07;50.75;101104.81;4748876;30;20070;-61
2023/01/08 10:33:02;;;;;;;14.10;5.50;;;;;;;-7.02;49.87;101098.03;4741921;30;20052;-60
2023/01/08 10:35:39;;;;;;;14.38;5.50;;;;;;;-6.98;49.62;101096.75;4748173;30;20056;-65
2023/01/08 10:38:08;;;;;;;11.23;5.20;;;;;;;-6.89;49.73;101111.78;4742105;30;20052;-62
2023/01/08 10:40:43;;;;;;;12.63;5.78;;;;;;;-7.00;49.85;101101.38;4748969;30;20043;-69
2023/01/08 10:43:16;;;;;;;17.25;4.82;;;;;;;-7.15;49.89;101109.09;4726040;30;20052;-68
2023/01/08 10:46:04;;;;;;;15.82;5.18;;;;;;;-7.14;50.30;101108.09;4748462;30;20511;-67
2023/01/08 10:48:39;;;;;;;10.90;5.05;;;;;;;-6.83;50.07;101101.50;4740833;30;20063;-63
2023/01/08 10:51:18;;;;;;;14.73;5.57;;;;;;;-6.89;49.80;101103.81;4732576;30;20078;-61
2023/01/08 10:53:47;;;;;;;17.65;5.45;;;;;;;-7.12;50.06;101107.94;4740589;30;20048;-63
2023/01/08 10:56:25;;;;;;;12.20;5.13;;;;;;;-7.24;50.22;101104.69;4748043;30;20052;-63
2023/01/08 10:58:52;;;;;;;13.38;5.13;;;;;;;-7.11;50.54;101114.94;4739942;30;20051;-63
2023/01/08 11:01:27;;;;;;;14.23;5.63;;;;;;;-6.99;50.34;101107.53;4747407;30;20051;-66
2023/01/08 11:04:00;;;;;;;15.38;5.60;;;;;;;-6.78;49.80;101108.03;4739707;30;20121;-60
2023/01/08 11:06:40;;;;;;;18.77;6.25;;;;;;;-6.86;49.82;101102.66;4747187;30;20138;-69
2023/01/08 11:09:22;;;;;;;16.48;4.68;;;;;;;-7.00;50.56;101117.34;4739062;30;20051;-61
2023/01/08 11:11:49;;;;;;;13.35;4.90;;;;;;;-7.00;50.68;101103.22;4728982;30;20454;-60
2023/01/08 11:14:34;;;;;;;12.05;4.60;;;;;;;-7.23;50.81;101101.03;4721399;30;20084;-66
2023/01/08 11:17:07;;;;;;;10.75;4.50;;;;;;;-7.29;51.22;101104.31;4728873;30;20069;-64
2023/01/08 11:19:35;;;;;;;10.93;4.60;;;;;;;-7.27;51.31;101102.34;4721769;30;20060;-62
2023/01/08 11:22:04;;;;;;;10.38;4.47;;;;;;;-7.50;51.54;101094.00;4745498;30;20427;-62
2023/01/08 11:24:38;;;;;;;8.73;4.35;;;;;;;-7.29;51.64;101098.16;4739586;30;20209;-65
2023/01/08 11:27:14;;;;;;;14.70;5.03;;;;;;;-7.25;51.84;101103.03;4745322;30;20427;-63
2023/01/08 11:30:18;;;;;;;13.40;4.95;;;;;;;-7.20;51.98;101099.91;4740303;30;20474;-60
2023/01/08 11:32:51;;;;;;;11.05;5.18;;;;;;;-7.10;51.74;101100.66;4736298;30;20147;-64
2023/01/08 11:35:20;;;;;;;22.55;6.95;;;;;;;-6.89;50.92;101098.50;4744619;30;20044;-61
2023/01/08 11:38:00;;;;;;;13.00;5.50;;;;;;;-7.00;51.31;101098.72;4736957;30;20267;-64
2023/01/08 11:40:30;;;;;;;39.58;5.93;;;;;;;-6.77;50.67;101092.91;4744338;30;20125;-62
2023/01/08 11:43:29;;;;;;;19.75;7.68;;;;;;;-6.80;50.96;101091.38;4735935;30;20537;-62
2023/01/08 11:46:11;;;;;;;11.82;4.65;;;;;;;-6.94;51.15;101103.44;4743853;30;20153;-70
2023/01/08 11:49:02;;;;;;;10.30;4.00;;;;;;;-7.24;51.62;101098.53;4735943;30;20058;-61
2023/01/08 11:52:06;;;;;;;15.25;5.25;;;;;;;-7.48;52.60;101100.00;4743164;30;20191;-69
2023/01/08 11:54:41;;;;;;;6.80;3.47;;;;;;;-7.69;52.88;101096.78;4718856;30;20487;-62
2023/01/08 11:57:35;;;;;;;6.53;3.38;;;;;;;-7.61;53.03;101091.56;4725447;30;20048;-64
2023/01/08 12:00:35;;;;;;;13.38;5.22;;;;;;;-7.67;53.46;101103.63;4732238;30;20903;-61